EST,Max TemperatureF,Mean TemperatureF,Min TemperatureF,Max Dew PointF,MeanDew PointF,Min DewpointF,Max Humidity, Mean Humidity, Min Humidity, Max Sea Level PressureIn, Mean Sea Level PressureIn, Min Sea Level PressureIn, Max VisibilityMiles, Mean VisibilityMiles, Min VisibilityMiles, Max Wind SpeedMPH, Mean Wind SpeedMPH, Max Gust SpeedMPH,PrecipitationIn, CloudCover, Events, WindDirDegrees
2014-1-1,9,-5,-19,-2,-14,-23,83,69,55,30.43,30.21,30.02,10,9,4,17,6,25,T,3,,270
2014-1-2,-14,-19,-24,-23,-27,-31,81,66,51,30.54,30.42,30.20,10,10,10,15,9,17,0.00,4,,2
2014-1-3,-7,-11,-16,-18,-21,-24,70,61,52,30.23,30.08,29.97,10,10,10,20,11,25,0.00,4,,343
2014-1-4,10,-5,-21,3,-10,-24,80,69,58,30.38,30.27,30.14,10,10,10,10,4,14,0.00,5,,214
2014-1-5,25,18,10,19,10,2,91,77,62,30.31,30.24,30.16,10,9,2,13,3,19,T,6,Snow,171
2014-1-6,50,37,23,48,35,19,93,86,78,30.14,29.45,29.08,10,4,2,24,12,35,1.12,8,Rain-Snow,142
2014-1-7,27,16,4,15,-2,-13,68,55,41,29.81,29.49,29.19,10,10,10,29,15,39,0.00,5,,258
2014-1-8,17,10,3,-1,-4,-11,63,53,43,30.25,30.10,29.84,10,10,10,28,12,39,0.00,1,,249
2014-1-9,17,3,-11,2,-5,-16,87,62,36,30.57,30.39,30.22,10,10,10,22,7,32,0.00,1,,257
2014-1-10,25,6,-13,10,0,-17,86,64,42,30.52,30.38,30.26,10,10,10,12,5,16,0.00,1,,194
2014-1-11,49,27,5,48,33,3,100,90,80,30.25,29.64,29.10,10,4,0,14,5,23,1.23,7,Fog-Rain,193
2014-1-12,49,43,36,47,35,23,100,80,59,29.68,29.26,29.05,10,9,4,24,12,40,0.06,7,Rain,244
2014-1-13,42,36,29,31,23,20,82,63,43,29.99,29.90,29.73,10,10,10,22,8,31,0.00,2,,219
2014-1-14,44,40,35,42,38,32,100,91,82,29.83,29.68,29.53,10,4,0,14,7,22,0.75,8,Fog-Rain,192
2014-1-15,42,37,31,37,34,31,100,83,65,29.95,29.82,29.53,10,8,1,13,4,17,0.13,6,Rain,231
2014-1-16,36,33,30,34,31,29,100,91,82,29.94,29.91,29.87,10,7,0,10,2,12,0.00,8,Fog,11
2014-1-17,38,34,30,35,32,29,100,78,56,29.95,29.88,29.83,10,8,2,12,5,17,T,7,Rain-Snow,170
2014-1-18,32,27,22,29,27,22,100,93,85,29.88,29.78,29.62,10,5,0,7,2,10,0.00,3,Fog,201
2014-1-19,29,24,18,27,24,16,100,91,81,29.65,29.38,29.24,10,4,0,22,3,30,0.16,7,Fog-Snow,230
2014-1-20,25,12,-1,21,10,-10,88,71,53,29.77,29.46,29.31,10,7,1,18,11,27,T,7,Snow,257
2014-1-21,3,-2,-7,-11,-13,-16,71,59,46,30.08,29.98,29.80,10,10,10,14,7,21,0.00,0,,294
2014-1-22,3,-2,-7,-4,-10,-14,75,67,58,30.01,29.78,29.63,10,10,9,24,14,31,0.00,3,,347
2014-1-23,10,4,-3,-5,-7,-11,75,63,50,29.97,29.84,29.73,10,10,10,17,8,23,0.00,3,,298
2014-1-24,7,-3,-13,-9,-12,-17,86,68,49,30.09,30.03,29.97,10,10,10,15,5,18,0.00,0,,257
2014-1-25,34,17,0,32,21,-10,96,78,60,29.95,29.45,29.14,10,4,0,18,6,34,0.38,7,Fog-Snow,184
2014-1-26,32,13,-7,31,12,-15,100,75,49,29.90,29.28,29.04,10,5,1,25,11,37,0.06,6,Snow,259
2014-1-27,38,19,0,36,12,-9,92,73,54,29.88,29.57,29.32,10,4,0,25,10,35,0.29,7,Fog-Rain-Snow,200
2014-1-28,10,1,-9,-4,-9,-12,71,56,41,30.19,30.05,29.83,10,10,10,25,8,34,0.00,1,,239
2014-1-29,17,3,-12,-1,-9,-17,86,60,33,30.16,29.98,29.82,10,10,9,13,3,18,0.00,1,,227
2014-1-30,19,11,2,8,0,-4,79,61,43,30.32,30.20,30.01,10,10,10,15,8,19,0.00,0,,218
2014-1-31,33,25,16,17,13,9,81,60,39,30.07,29.94,29.85,10,10,10,24,11,37,0.00,3,,220